sensor_id;sensor_type;location;lat;lon;timestamp;temperature;humidity
2212;DHT22;48849;48.758;9.158;2023-03-23T00:01:10;14.50;99.90
2212;DHT22;48849;48.758;9.158;2023-03-23T00:03:38;14.60;99.90
2212;DHT22;48849;48.758;9.158;2023-03-23T00:06:06;14.50;99.90
2212;DHT22;48849;48.758;9.158;2023-03-23T00:08:35;14.50;99.90
2212;DHT22;48849;48.758;9.158;2023-03-23T00:11:04;14.50;99.90
2212;DHT22;48849;48.758;9.158;2023-03-23T00:13:31;14.50;99.90
2212;DHT22;48849;48.758;9.158;2023-03-23T00:15:58;14.60;99.90
2212;DHT22;48849;48.758;9.158;2023-03-23T00:18:25;14.50;99.90
2212;DHT22;48849;48.758;9.158;2023-03-23T00:20:54;14.50;99.90
2212;DHT22;48849;48.758;9.158;2023-03-23T00:23:22;14.50;99.90
2212;DHT22;48849;48.758;9.158;2023-03-23T00:25:51;14.50;99.90
2212;DHT22;48849;48.758;9.158;2023-03-23T00:28:24;14.50;99.90
2212;DHT22;48849;48.758;9.158;2023-03-23T00:30:56;14.60;99.90
2212;DHT22;48849;48.758;9.158;2023-03-23T00:33:23;14.60;99.90
2212;DHT22;48849;48.758;9.158;2023-03-23T00:35:51;14.60;99.90
2212;DHT22;48849;48.758;9.158;2023-03-23T00:38:20;14.60;99.90
2212;DHT22;48849;48.758;9.158;2023-03-23T00:40:47;14.60;99.90
2212;DHT22;48849;48.758;9.158;2023-03-23T00:43:14;14.60;99.90
2212;DHT22;48849;48.758;9.158;2023-03-23T00:45:43;14.60;99.90
2212;DHT22;48849;48.758;9.158;2023-03-23T00:48:14;14.60;99.90
2212;DHT22;48849;48.758;9.158;2023-03-23T00:50:41;14.60;99.90
2212;DHT22;48849;48.758;9.158;2023-03-23T00:53:08;14.60;99.90
2212;DHT22;48849;48.758;9.158;2023-03-23T00:55:35;14.60;99.90
2212;DHT22;48849;48.758;9.158;2023-03-23T00:58:01;14.60;99.90
2212;DHT22;48849;48.758;9.158;2023-03-23T01:00:28;14.50;99.90
2212;DHT22;48849;48.758;9.158;2023-03-23T01:02:56;14.50;99.90
2212;DHT22;48849;48.758;9.158;2023-03-23T01:05:23;14.50;99.90
2212;DHT22;48849;48.758;9.158;2023-03-23T01:07:49;14.60;99.90
2212;DHT22;48849;48.758;9.158;2023-03-23T01:10:16;14.50;99.90
2212;DHT22;48849;48.758;9.158;2023-03-23T01:12:44;14.50;99.90
2212;DHT22;48849;48.758;9.158;2023-03-23T01:15:13;14.50;99.90
2212;DHT22;48849;48.758;9.158;2023-03-23T01:17:41;14.50;99.90
2212;DHT22;48849;48.758;9.158;2023-03-23T01:20:09;14.50;99.90
2212;DHT22;48849;48.758;9.158;2023-03-23T01:22:37;14.50;99.90
2212;DHT22;48849;48.758;9.158;2023-03-23T01:25:05;14.50;99.90
2212;DHT22;48849;48.758;9.158;2023-03-23T01:27:32;14.50;99.90
2212;DHT22;48849;48.758;9.158;2023-03-23T01:29:58;14.50;99.90
2212;DHT22;48849;48.758;9.158;2023-03-23T01:32:25;14.50;99.90
2212;DHT22;48849;48.758;9.158;2023-03-23T01:34:52;14.50;99.90
2212;DHT22;48849;48.758;9.158;2023-03-23T01:37:20;14.50;99.90
2212;DHT22;48849;48.758;9.158;2023-03-23T01:39:51;14.40;99.90
2212;DHT22;48849;48.758;9.158;2023-03-23T01:42:20;14.40;99.90
2212;DHT22;48849;48.758;9.158;2023-03-23T01:45:22;14.40;99.90
2212;DHT22;48849;48.758;9.158;2023-03-23T01:47:53;14.40;99.90
2212;DHT22;48849;48.758;9.158;2023-03-23T01:50:24;14.40;99.90
2212;DHT22;48849;48.758;9.158;2023-03-23T01:52:54;14.40;99.90
2212;DHT22;48849;48.758;9.158;2023-03-23T01:55:25;14.40;99.90
2212;DHT22;48849;48.758;9.158;2023-03-23T01:57:53;14.40;99.90
2212;DHT22;48849;48.758;9.158;2023-03-23T02:00:21;14.50;99.90
2212;DHT22;48849;48.758;9.158;2023-03-23T02:02:49;14.50;99.90
2212;DHT22;48849;48.758;9.158;2023-03-23T02:05:23;14.50;99.90
2212;DHT22;48849;48.758;9.158;2023-03-23T02:07:52;14.50;99.90
2212;DHT22;48849;48.758;9.158;2023-03-23T02:10:19;14.50;99.90
2212;DHT22;48849;48.758;9.158;2023-03-23T02:12:46;14.50;99.90
2212;DHT22;48849;48.758;9.158;2023-03-23T02:15:13;14.50;99.90
2212;DHT22;48849;48.758;9.158;2023-03-23T02:17:45;14.60;99.90
2212;DHT22;48849;48.758;9.158;2023-03-23T02:20:24;14.60;99.90
2212;DHT22;48849;48.758;9.158;2023-03-23T02:23:27;14.60;99.90
2212;DHT22;48849;48.758;9.158;2023-03-23T02:26:09;14.60;99.90
2212;DHT22;48849;48.758;9.158;2023-03-23T02:28:59;14.60;99.90
2212;DHT22;48849;48.758;9.158;2023-03-23T02:31:47;14.60;99.90
2212;DHT22;48849;48.758;9.158;2023-03-23T02:34:18;14.60;99.90
2212;DHT22;48849;48.758;9.158;2023-03-23T02:36:51;14.60;99.90
2212;DHT22;48849;48.758;9.158;2023-03-23T02:39:23;14.60;99.90
2212;DHT22;48849;48.758;9.158;2023-03-23T02:41:54;14.60;99.90
2212;DHT22;48849;48.758;9.158;2023-03-23T02:44:23;14.60;99.90
2212;DHT22;48849;48.758;9.158;2023-03-23T02:46:51;14.50;99.90
2212;DHT22;48849;48.758;9.158;2023-03-23T02:49:22;14.50;99.90
2212;DHT22;48849;48.758;9.158;2023-03-23T02:51:51;14.50;99.90
2212;DHT22;48849;48.758;9.158;2023-03-23T02:54:18;14.40;99.90
2212;DHT22;48849;48.758;9.158;2023-03-23T02:56:48;14.40;99.90
2212;DHT22;48849;48.758;9.158;2023-03-23T02:59:17;14.40;99.90
2212;DHT22;48849;48.758;9.158;2023-03-23T03:01:58;14.40;99.90
2212;DHT22;48849;48.758;9.158;2023-03-23T03:04:29;14.40;99.90
2212;DHT22;48849;48.758;9.158;2023-03-23T03:07:18;14.40;99.90
2212;DHT22;48849;48.758;9.158;2023-03-23T03:09:53;14.30;99.90
2212;DHT22;48849;48.758;9.158;2023-03-23T03:12:29;14.30;99.90
2212;DHT22;48849;48.758;9.158;2023-03-23T03:15:06;14.30;99.90
2212;DHT22;48849;48.758;9.158;2023-03-23T03:17:38;14.30;99.90
2212;DHT22;48849;48.758;9.158;2023-03-23T03:20:10;14.30;99.90
2212;DHT22;48849;48.758;9.158;2023-03-23T03:22:41;14.40;99.90
2212;DHT22;48849;48.758;9.158;2023-03-23T03:25:10;14.40;99.90
2212;DHT22;48849;48.758;9.158;2023-03-23T03:27:39;14.40;99.90
2212;DHT22;48849;48.758;9.158;2023-03-23T03:30:09;14.40;99.90
2212;DHT22;48849;48.758;9.158;2023-03-23T03:32:41;14.40;99.90
2212;DHT22;48849;48.758;9.158;2023-03-23T03:35:10;14.40;99.90
2212;DHT22;48849;48.758;9.158;2023-03-23T03:37:38;14.50;99.90
2212;DHT22;48849;48.758;9.158;2023-03-23T03:40:08;14.70;99.90
2212;DHT22;48849;48.758;9.158;2023-03-23T03:42:37;14.60;99.90
2212;DHT22;48849;48.758;9.158;2023-03-23T03:45:06;14.60;99.90
2212;DHT22;48849;48.758;9.158;2023-03-23T03:47:33;14.60;99.90
2212;DHT22;48849;48.758;9.158;2023-03-23T03:50:00;14.60;99.90
2212;DHT22;48849;48.758;9.158;2023-03-23T03:52:28;14.70;99.90
2212;DHT22;48849;48.758;9.158;2023-03-23T03:54:55;14.70;99.90
2212;DHT22;48849;48.758;9.158;2023-03-23T03:57:22;14.70;99.90
2212;DHT22;48849;48.758;9.158;2023-03-23T03:59:49;14.70;99.90
2212;DHT22;48849;48.758;9.158;2023-03-23T04:02:16;14.60;99.90
2212;DHT22;48849;48.758;9.158;2023-03-23T04:04:46;14.60;99.90
2212;DHT22;48849;48.758;9.158;2023-03-23T04:07:13;14.60;99.90
2212;DHT22;48849;48.758;9.158;2023-03-23T04:09:43;14.60;99.90
2212;DHT22;48849;48.758;9.158;2023-03-23T04:12:11;14.60;99.90
2212;DHT22;48849;48.758;9.158;2023-03-23T04:14:38;14.60;99.90
2212;DHT22;48849;48.758;9.158;2023-03-23T04:17:05;14.50;99.90
2212;DHT22;48849;48.758;9.158;2023-03-23T04:19:32;14.50;99.90
2212;DHT22;48849;48.758;9.158;2023-03-23T04:21:59;14.50;99.90
2212;DHT22;48849;48.758;9.158;2023-03-23T04:24:26;14.60;99.90
2212;DHT22;48849;48.758;9.158;2023-03-23T04:26:57;14.60;99.90
2212;DHT22;48849;48.758;9.158;2023-03-23T04:29:24;14.50;99.90
2212;DHT22;48849;48.758;9.158;2023-03-23T04:31:51;14.50;99.90
2212;DHT22;48849;48.758;9.158;2023-03-23T04:34:18;14.50;99.90
2212;DHT22;48849;48.758;9.158;2023-03-23T04:36:45;14.50;99.90
2212;DHT22;48849;48.758;9.158;2023-03-23T04:39:13;14.50;99.90
2212;DHT22;48849;48.758;9.158;2023-03-23T04:41:41;14.50;99.90
2212;DHT22;48849;48.758;9.158;2023-03-23T04:44:10;14.50;99.90
2212;DHT22;48849;48.758;9.158;2023-03-23T04:46:43;14.40;99.90
2212;DHT22;48849;48.758;9.158;2023-03-23T04:49:15;14.40;99.90
2212;DHT22;48849;48.758;9.158;2023-03-23T04:51:46;14.40;99.90
2212;DHT22;48849;48.758;9.158;2023-03-23T04:54:13;14.40;99.90
2212;DHT22;48849;48.758;9.158;2023-03-23T04:56:39;14.40;99.90
2212;DHT22;48849;48.758;9.158;2023-03-23T04:59:07;14.40;99.90
2212;DHT22;48849;48.758;9.158;2023-03-23T05:01:35;14.40;99.90
2212;DHT22;48849;48.758;9.158;2023-03-23T05:04:04;14.40;99.90
2212;DHT22;48849;48.758;9.158;2023-03-23T05:06:31;14.40;99.90
2212;DHT22;48849;48.758;9.158;2023-03-23T05:08:57;14.40;99.90
2212;DHT22;48849;48.758;9.158;2023-03-23T05:11:24;14.50;99.90
2212;DHT22;48849;48.758;9.158;2023-03-23T05:13:51;14.40;99.90
2212;DHT22;48849;48.758;9.158;2023-03-23T05:16:18;14.40;99.90
2212;DHT22;48849;48.758;9.158;2023-03-23T05:18:46;14.40;99.90
2212;DHT22;48849;48.758;9.158;2023-03-23T05:21:13;14.40;99.90
2212;DHT22;48849;48.758;9.158;2023-03-23T05:23:40;14.40;99.90
2212;DHT22;48849;48.758;9.158;2023-03-23T05:26:08;15.90;99.90
2212;DHT22;48849;48.758;9.158;2023-03-23T05:28:34;14.50;99.90
2212;DHT22;48849;48.758;9.158;2023-03-23T05:31:03;14.50;99.90
2212;DHT22;48849;48.758;9.158;2023-03-23T05:33:30;12.70;99.90
2212;DHT22;48849;48.758;9.158;2023-03-23T05:35:58;14.40;99.90
2212;DHT22;48849;48.758;9.158;2023-03-23T05:38:26;14.40;99.90
2212;DHT22;48849;48.758;9.158;2023-03-23T05:40:53;14.40;99.90
2212;DHT22;48849;48.758;9.158;2023-03-23T05:43:20;14.40;99.90
2212;DHT22;48849;48.758;9.158;2023-03-23T05:45:46;14.40;99.90
2212;DHT22;48849;48.758;9.158;2023-03-23T05:48:13;15.20;99.90
2212;DHT22;48849;48.758;9.158;2023-03-23T05:50:40;14.30;99.90
2212;DHT22;48849;48.758;9.158;2023-03-23T05:53:08;14.40;99.90
2212;DHT22;48849;48.758;9.158;2023-03-23T05:55:35;14.40;99.90
2212;DHT22;48849;48.758;9.158;2023-03-23T05:58:02;14.30;99.90
2212;DHT22;48849;48.758;9.158;2023-03-23T06:00:28;14.40;99.90
2212;DHT22;48849;48.758;9.158;2023-03-23T06:02:56;14.40;99.90
2212;DHT22;48849;48.758;9.158;2023-03-23T06:05:23;14.40;99.90
2212;DHT22;48849;48.758;9.158;2023-03-23T06:07:51;14.40;99.90
2212;DHT22;48849;48.758;9.158;2023-03-23T06:10:20;14.40;99.90
2212;DHT22;48849;48.758;9.158;2023-03-23T06:12:47;14.40;99.90
2212;DHT22;48849;48.758;9.158;2023-03-23T06:15:13;14.50;99.90
2212;DHT22;48849;48.758;9.158;2023-03-23T06:17:40;14.40;99.90
2212;DHT22;48849;48.758;9.158;2023-03-23T06:20:08;14.40;99.90
2212;DHT22;48849;48.758;9.158;2023-03-23T06:22:36;14.40;99.90
2212;DHT22;48849;48.758;9.158;2023-03-23T06:25:05;14.30;99.90
2212;DHT22;48849;48.758;9.158;2023-03-23T06:27:33;14.40;99.90
2212;DHT22;48849;48.758;9.158;2023-03-23T06:30:00;14.40;99.90
2212;DHT22;48849;48.758;9.158;2023-03-23T06:32:30;14.40;99.90
2212;DHT22;48849;48.758;9.158;2023-03-23T06:34:58;14.40;99.90
2212;DHT22;48849;48.758;9.158;2023-03-23T06:37:24;14.40;99.90
2212;DHT22;48849;48.758;9.158;2023-03-23T06:39:51;15.70;99.90
2212;DHT22;48849;48.758;9.158;2023-03-23T06:42:18;14.40;99.90
2212;DHT22;48849;48.758;9.158;2023-03-23T06:44:46;14.40;99.90
2212;DHT22;48849;48.758;9.158;2023-03-23T06:47:13;14.40;99.90
2212;DHT22;48849;48.758;9.158;2023-03-23T06:49:39;14.50;99.90
2212;DHT22;48849;48.758;9.158;2023-03-23T06:52:06;14.40;99.90
2212;DHT22;48849;48.758;9.158;2023-03-23T06:54:33;14.40;99.90
2212;DHT22;48849;48.758;9.158;2023-03-23T06:57:00;14.70;99.90
2212;DHT22;48849;48.758;9.158;2023-03-23T06:59:27;14.40;99.90
2212;DHT22;48849;48.758;9.158;2023-03-23T07:01:55;14.40;99.90
2212;DHT22;48849;48.758;9.158;2023-03-23T07:04:22;14.50;99.90
2212;DHT22;48849;48.758;9.158;2023-03-23T07:06:49;14.70;99.90
2212;DHT22;48849;48.758;9.158;2023-03-23T07:09:16;14.40;99.90
2212;DHT22;48849;48.758;9.158;2023-03-23T07:11:43;14.40;99.90
2212;DHT22;48849;48.758;9.158;2023-03-23T07:14:12;14.50;99.90
2212;DHT22;48849;48.758;9.158;2023-03-23T07:16:40;14.50;99.90
2212;DHT22;48849;48.758;9.158;2023-03-23T07:19:09;14.50;99.90
2212;DHT22;48849;48.758;9.158;2023-03-23T07:21:35;14.50;99.90
2212;DHT22;48849;48.758;9.158;2023-03-23T07:24:02;14.60;99.90
2212;DHT22;48849;48.758;9.158;2023-03-23T07:26:29;14.50;99.90
2212;DHT22;48849;48.758;9.158;2023-03-23T07:28:56;14.50;99.90
2212;DHT22;48849;48.758;9.158;2023-03-23T07:31:22;14.60;99.90
2212;DHT22;48849;48.758;9.158;2023-03-23T07:33:49;14.60;99.90
2212;DHT22;48849;48.758;9.158;2023-03-23T07:36:17;14.60;99.90
2212;DHT22;48849;48.758;9.158;2023-03-23T07:38:44;14.60;99.90
2212;DHT22;48849;48.758;9.158;2023-03-23T07:41:10;14.60;99.90
2212;DHT22;48849;48.758;9.158;2023-03-23T07:43:38;14.60;99.90
2212;DHT22;48849;48.758;9.158;2023-03-23T07:46:04;14.60;99.90
2212;DHT22;48849;48.758;9.158;2023-03-23T07:48:31;14.60;99.90
2212;DHT22;48849;48.758;9.158;2023-03-23T07:50:58;14.70;99.90
2212;DHT22;48849;48.758;9.158;2023-03-23T07:53:26;14.80;99.90
2212;DHT22;48849;48.758;9.158;2023-03-23T07:55:54;15.60;99.90
2212;DHT22;48849;48.758;9.158;2023-03-23T07:58:21;14.90;99.90
2212;DHT22;48849;48.758;9.158;2023-03-23T08:00:47;15.00;99.90
2212;DHT22;48849;48.758;9.158;2023-03-23T08:03:15;15.00;99.90
2212;DHT22;48849;48.758;9.158;2023-03-23T08:05:43;15.00;99.90
2212;DHT22;48849;48.758;9.158;2023-03-23T08:08:10;15.10;99.90
2212;DHT22;48849;48.758;9.158;2023-03-23T08:10:39;15.30;99.90
2212;DHT22;48849;48.758;9.158;2023-03-23T08:13:06;15.10;99.90
2212;DHT22;48849;48.758;9.158;2023-03-23T08:15:34;15.20;99.90
2212;DHT22;48849;48.758;9.158;2023-03-23T08:18:03;15.20;99.90
2212;DHT22;48849;48.758;9.158;2023-03-23T08:20:30;15.30;99.90
2212;DHT22;48849;48.758;9.158;2023-03-23T08:22:58;15.30;99.90
2212;DHT22;48849;48.758;9.158;2023-03-23T08:25:25;15.50;99.90
2212;DHT22;48849;48.758;9.158;2023-03-23T08:27:54;15.50;99.90
2212;DHT22;48849;48.758;9.158;2023-03-23T08:30:21;15.50;99.90
2212;DHT22;48849;48.758;9.158;2023-03-23T08:32:50;15.60;99.90
2212;DHT22;48849;48.758;9.158;2023-03-23T08:35:18;15.60;99.90
2212;DHT22;48849;48.758;9.158;2023-03-23T08:37:45;15.70;99.90
2212;DHT22;48849;48.758;9.158;2023-03-23T08:40:16;15.70;99.90
2212;DHT22;48849;48.758;9.158;2023-03-23T08:42:45;15.70;99.90
2212;DHT22;48849;48.758;9.158;2023-03-23T08:45:16;15.70;99.90
2212;DHT22;48849;48.758;9.158;2023-03-23T08:47:44;15.80;99.90
2212;DHT22;48849;48.758;9.158;2023-03-23T08:50:14;16.10;99.90
2212;DHT22;48849;48.758;9.158;2023-03-23T08:52:41;15.80;99.90
2212;DHT22;48849;48.758;9.158;2023-03-23T08:55:09;15.90;99.90
2212;DHT22;48849;48.758;9.158;2023-03-23T08:57:36;15.90;99.90
2212;DHT22;48849;48.758;9.158;2023-03-23T09:00:05;15.80;99.90
2212;DHT22;48849;48.758;9.158;2023-03-23T09:02:41;15.90;99.90
2212;DHT22;48849;48.758;9.158;2023-03-23T09:05:08;16.00;99.90
2212;DHT22;48849;48.758;9.158;2023-03-23T09:07:36;17.30;99.90
2212;DHT22;48849;48.758;9.158;2023-03-23T09:10:03;16.00;99.90
2212;DHT22;48849;48.758;9.158;2023-03-23T09:12:30;16.00;99.90
2212;DHT22;48849;48.758;9.158;2023-03-23T09:14:57;16.00;99.90
2212;DHT22;48849;48.758;9.158;2023-03-23T09:17:23;16.00;99.90
2212;DHT22;48849;48.758;9.158;2023-03-23T09:19:52;16.10;99.90
2212;DHT22;48849;48.758;9.158;2023-03-23T09:22:18;16.00;99.90
2212;DHT22;48849;48.758;9.158;2023-03-23T09:24:48;16.00;99.90
2212;DHT22;48849;48.758;9.158;2023-03-23T09:27:15;16.10;99.90
2212;DHT22;48849;48.758;9.158;2023-03-23T09:29:42;16.10;99.90
2212;DHT22;48849;48.758;9.158;2023-03-23T09:32:10;16.10;99.90
2212;DHT22;48849;48.758;9.158;2023-03-23T09:34:38;16.10;99.90
2212;DHT22;48849;48.758;9.158;2023-03-23T09:37:07;17.20;99.90
2212;DHT22;48849;48.758;9.158;2023-03-23T09:39:34;16.20;99.90
2212;DHT22;48849;48.758;9.158;2023-03-23T09:42:17;16.20;99.90
2212;DHT22;48849;48.758;9.158;2023-03-23T09:44:59;16.20;99.90
2212;DHT22;48849;48.758;9.158;2023-03-23T09:47:36;16.20;99.90
2212;DHT22;48849;48.758;9.158;2023-03-23T09:50:09;16.20;99.90
2212;DHT22;48849;48.758;9.158;2023-03-23T09:52:43;16.30;99.90
2212;DHT22;48849;48.758;9.158;2023-03-23T09:55:13;16.30;99.90
2212;DHT22;48849;48.758;9.158;2023-03-23T09:57:45;16.30;99.90
2212;DHT22;48849;48.758;9.158;2023-03-23T10:00:15;16.30;99.90
2212;DHT22;48849;48.758;9.158;2023-03-23T10:02:49;16.40;99.90
2212;DHT22;48849;48.758;9.158;2023-03-23T10:05:31;16.40;99.90
2212;DHT22;48849;48.758;9.158;2023-03-23T10:08:02;16.40;99.90
2212;DHT22;48849;48.758;9.158;2023-03-23T10:10:36;16.50;99.90
2212;DHT22;48849;48.758;9.158;2023-03-23T10:13:08;16.50;99.90
2212;DHT22;48849;48.758;9.158;2023-03-23T10:15:38;16.60;99.90
2212;DHT22;48849;48.758;9.158;2023-03-23T10:18:13;16.60;99.90
2212;DHT22;48849;48.758;9.158;2023-03-23T10:20:46;16.60;99.90
2212;DHT22;48849;48.758;9.158;2023-03-23T10:23:53;16.60;99.90
2212;DHT22;48849;48.758;9.158;2023-03-23T10:26:33;16.70;99.90
2212;DHT22;48849;48.758;9.158;2023-03-23T10:29:11;16.70;99.90
2212;DHT22;48849;48.758;9.158;2023-03-23T10:31:41;16.70;99.90
2212;DHT22;48849;48.758;9.158;2023-03-23T10:34:13;16.80;99.90
2212;DHT22;48849;48.758;9.158;2023-03-23T10:36:52;16.80;99.90
2212;DHT22;48849;48.758;9.158;2023-03-23T10:39:26;16.70;99.90
2212;DHT22;48849;48.758;9.158;2023-03-23T10:41:54;16.70;99.90
2212;DHT22;48849;48.758;9.158;2023-03-23T10:44:24;16.70;99.90
2212;DHT22;48849;48.758;9.158;2023-03-23T10:46:58;16.80;99.90
2212;DHT22;48849;48.758;9.158;2023-03-23T10:49:30;16.80;99.90
2212;DHT22;48849;48.758;9.158;2023-03-23T10:52:20;16.90;99.90
2212;DHT22;48849;48.758;9.158;2023-03-23T10:54:55;16.80;99.90
2212;DHT22;48849;48.758;9.158;2023-03-23T10:57:24;16.80;99.90
2212;DHT22;48849;48.758;9.158;2023-03-23T10:59:58;18.50;99.90
2212;DHT22;48849;48.758;9.158;2023-03-23T11:02:25;17.00;99.90
2212;DHT22;48849;48.758;9.158;2023-03-23T11:05:01;17.10;99.90
2212;DHT22;48849;48.758;9.158;2023-03-23T11:07:32;16.90;99.90
2212;DHT22;48849;48.758;9.158;2023-03-23T11:10:11;18.10;99.90
2212;DHT22;48849;48.758;9.158;2023-03-23T11:12:44;17.00;99.90
2212;DHT22;48849;48.758;9.158;2023-03-23T11:15:23;17.00;99.90
2212;DHT22;48849;48.758;9.158;2023-03-23T11:17:56;17.00;99.90
2212;DHT22;48849;48.758;9.158;2023-03-23T11:20:24;17.00;99.90
2212;DHT22;48849;48.758;9.158;2023-03-23T11:22:52;17.00;99.90
2212;DHT22;48849;48.758;9.158;2023-03-23T11:25:20;17.00;99.90
2212;DHT22;48849;48.758;9.158;2023-03-23T11:27:48;17.00;99.90
2212;DHT22;48849;48.758;9.158;2023-03-23T11:30:24;17.10;99.90
2212;DHT22;48849;48.758;9.158;2023-03-23T11:32:53;17.10;99.90
2212;DHT22;48849;48.758;9.158;2023-03-23T11:35:22;17.80;99.90
2212;DHT22;48849;48.758;9.158;2023-03-23T11:37:51;17.10;99.90
2212;DHT22;48849;48.758;9.158;2023-03-23T11:40:22;17.10;99.90
2212;DHT22;48849;48.758;9.158;2023-03-23T11:42:56;17.10;99.90
2212;DHT22;48849;48.758;9.158;2023-03-23T11:45:30;17.20;99.90
2212;DHT22;48849;48.758;9.158;2023-03-23T11:48:05;17.20;99.90
2212;DHT22;48849;48.758;9.158;2023-03-23T11:50:34;17.90;99.90
2212;DHT22;48849;48.758;9.158;2023-03-23T11:53:09;17.20;99.90
2212;DHT22;48849;48.758;9.158;2023-03-23T11:55:55;17.30;99.90
2212;DHT22;48849;48.758;9.158;2023-03-23T11:58:24;18.90;99.90
2212;DHT22;48849;48.758;9.158;2023-03-23T12:01:00;17.50;99.90
2212;DHT22;48849;48.758;9.158;2023-03-23T12:03:40;17.40;99.90
2212;DHT22;48849;48.758;9.158;2023-03-23T12:06:13;18.40;99.90
2212;DHT22;48849;48.758;9.158;2023-03-23T12:08:52;17.40;99.90
2212;DHT22;48849;48.758;9.158;2023-03-23T12:11:28;17.40;99.90
2212;DHT22;48849;48.758;9.158;2023-03-23T12:14:10;17.50;99.90
2212;DHT22;48849;48.758;9.158;2023-03-23T12:16:47;17.50;99.90
2212;DHT22;48849;48.758;9.158;2023-03-23T12:19:18;17.40;99.90
2212;DHT22;48849;48.758;9.158;2023-03-23T12:21:54;17.50;99.90
2212;DHT22;48849;48.758;9.158;2023-03-23T12:24:33;17.50;99.90
2212;DHT22;48849;48.758;9.158;2023-03-23T12:27:10;17.40;99.90
2212;DHT22;48849;48.758;9.158;2023-03-23T12:29:48;17.40;99.90
2212;DHT22;48849;48.758;9.158;2023-03-23T12:32:49;18.00;99.90
2212;DHT22;48849;48.758;9.158;2023-03-23T12:35:40;17.50;99.90
2212;DHT22;48849;48.758;9.158;2023-03-23T12:38:24;17.50;99.90
2212;DHT22;48849;48.758;9.158;2023-03-23T12:41:11;17.50;99.90
2212;DHT22;48849;48.758;9.158;2023-03-23T12:43:47;17.50;99.90
2212;DHT22;48849;48.758;9.158;2023-03-23T12:46:33;18.70;99.90
2212;DHT22;48849;48.758;9.158;2023-03-23T12:49:07;17.60;99.90
2212;DHT22;48849;48.758;9.158;2023-03-23T12:51:41;17.70;99.90
2212;DHT22;48849;48.758;9.158;2023-03-23T12:54:12;17.70;99.90
2212;DHT22;48849;48.758;9.158;2023-03-23T12:56:46;17.80;99.90
2212;DHT22;48849;48.758;9.158;2023-03-23T12:59:21;19.20;99.90
2212;DHT22;48849;48.758;9.158;2023-03-23T13:01:53;17.90;99.90
2212;DHT22;48849;48.758;9.158;2023-03-23T13:04:25;17.90;99.90
2212;DHT22;48849;48.758;9.158;2023-03-23T13:06:52;19.30;99.90
2212;DHT22;48849;48.758;9.158;2023-03-23T13:09:24;17.90;99.90
2212;DHT22;48849;48.758;9.158;2023-03-23T13:11:54;17.80;99.90
2212;DHT22;48849;48.758;9.158;2023-03-23T13:14:31;17.80;99.90
2212;DHT22;48849;48.758;9.158;2023-03-23T13:17:05;17.80;99.90
2212;DHT22;48849;48.758;9.158;2023-03-23T13:19:59;18.00;99.90
2212;DHT22;48849;48.758;9.158;2023-03-23T13:22:36;17.80;99.90
2212;DHT22;48849;48.758;9.158;2023-03-23T13:25:08;17.70;99.90
2212;DHT22;48849;48.758;9.158;2023-03-23T13:27:37;17.80;99.90
2212;DHT22;48849;48.758;9.158;2023-03-23T13:30:18;17.70;99.90
2212;DHT22;48849;48.758;9.158;2023-03-23T13:32:48;17.70;99.90
2212;DHT22;48849;48.758;9.158;2023-03-23T13:35:18;17.80;99.90
2212;DHT22;48849;48.758;9.158;2023-03-23T13:37:47;18.10;99.90
2212;DHT22;48849;48.758;9.158;2023-03-23T13:40:23;17.70;99.90
2212;DHT22;48849;48.758;9.158;2023-03-23T13:42:53;17.70;99.90
2212;DHT22;48849;48.758;9.158;2023-03-23T13:45:22;18.10;99.90
2212;DHT22;48849;48.758;9.158;2023-03-23T13:47:50;19.00;99.90
2212;DHT22;48849;48.758;9.158;2023-03-23T13:50:29;19.30;99.90
2212;DHT22;48849;48.758;9.158;2023-03-23T13:52:59;17.70;99.90
2212;DHT22;48849;48.758;9.158;2023-03-23T13:55:39;18.60;99.90
2212;DHT22;48849;48.758;9.158;2023-03-23T13:58:11;18.00;99.90
2212;DHT22;48849;48.758;9.158;2023-03-23T14:00:47;17.80;99.90
2212;DHT22;48849;48.758;9.158;2023-03-23T14:03:18;17.70;99.90
2212;DHT22;48849;48.758;9.158;2023-03-23T14:05:49;17.70;99.90
2212;DHT22;48849;48.758;9.158;2023-03-23T14:08:22;17.70;99.90
2212;DHT22;48849;48.758;9.158;2023-03-23T14:10:54;17.70;99.90
2212;DHT22;48849;48.758;9.158;2023-03-23T14:13:30;17.70;99.90
2212;DHT22;48849;48.758;9.158;2023-03-23T14:16:00;16.90;99.90
2212;DHT22;48849;48.758;9.158;2023-03-23T14:18:34;17.60;99.90
2212;DHT22;48849;48.758;9.158;2023-03-23T14:21:02;17.60;99.90
2212;DHT22;48849;48.758;9.158;2023-03-23T14:23:32;17.60;99.90
2212;DHT22;48849;48.758;9.158;2023-03-23T14:26:01;17.50;99.90
2212;DHT22;48849;48.758;9.158;2023-03-23T14:28:37;17.50;99.90
2212;DHT22;48849;48.758;9.158;2023-03-23T14:31:16;17.50;99.90
2212;DHT22;48849;48.758;9.158;2023-03-23T14:33:43;17.60;99.90
2212;DHT22;48849;48.758;9.158;2023-03-23T14:36:10;17.50;99.90
2212;DHT22;48849;48.758;9.158;2023-03-23T14:38:37;17.50;99.90
2212;DHT22;48849;48.758;9.158;2023-03-23T14:41:05;17.60;99.90
2212;DHT22;48849;48.758;9.158;2023-03-23T14:43:34;17.60;99.90
2212;DHT22;48849;48.758;9.158;2023-03-23T14:46:05;19.40;99.90
2212;DHT22;48849;48.758;9.158;2023-03-23T14:48:33;17.60;99.90
2212;DHT22;48849;48.758;9.158;2023-03-23T14:51:03;17.60;99.90
2212;DHT22;48849;48.758;9.158;2023-03-23T14:53:32;17.50;99.90
2212;DHT22;48849;48.758;9.158;2023-03-23T14:56:02;19.20;99.90
2212;DHT22;48849;48.758;9.158;2023-03-23T14:58:30;18.40;99.90
2212;DHT22;48849;48.758;9.158;2023-03-23T15:00:59;17.50;99.90
2212;DHT22;48849;48.758;9.158;2023-03-23T15:03:28;17.50;99.90
2212;DHT22;48849;48.758;9.158;2023-03-23T15:06:00;17.60;99.90
2212;DHT22;48849;48.758;9.158;2023-03-23T15:08:31;17.60;99.90
2212;DHT22;48849;48.758;9.158;2023-03-23T15:11:05;17.70;99.90
2212;DHT22;48849;48.758;9.158;2023-03-23T15:13:32;17.80;99.90
2212;DHT22;48849;48.758;9.158;2023-03-23T15:16:05;17.70;99.90
2212;DHT22;48849;48.758;9.158;2023-03-23T15:18:35;17.70;99.90
2212;DHT22;48849;48.758;9.158;2023-03-23T15:21:12;17.70;99.90
2212;DHT22;48849;48.758;9.158;2023-03-23T15:23:45;17.70;99.90
2212;DHT22;48849;48.758;9.158;2023-03-23T15:26:29;17.80;99.90
2212;DHT22;48849;48.758;9.158;2023-03-23T15:29:11;18.90;99.90
2212;DHT22;48849;48.758;9.158;2023-03-23T15:31:43;17.80;99.90
2212;DHT22;48849;48.758;9.158;2023-03-23T15:34:24;17.80;99.90
2212;DHT22;48849;48.758;9.158;2023-03-23T15:36:55;17.70;99.90
2212;DHT22;48849;48.758;9.158;2023-03-23T15:39:22;17.80;99.90
2212;DHT22;48849;48.758;9.158;2023-03-23T15:41:51;18.80;99.90
2212;DHT22;48849;48.758;9.158;2023-03-23T15:44:25;19.30;99.90
2212;DHT22;48849;48.758;9.158;2023-03-23T15:46:55;17.80;99.90
2212;DHT22;48849;48.758;9.158;2023-03-23T15:49:27;17.80;99.90
2212;DHT22;48849;48.758;9.158;2023-03-23T15:51:55;17.80;99.90
2212;DHT22;48849;48.758;9.158;2023-03-23T15:54:22;17.80;99.90
2212;DHT22;48849;48.758;9.158;2023-03-23T15:56:49;19.00;99.90
2212;DHT22;48849;48.758;9.158;2023-03-23T15:59:15;17.80;99.90
2212;DHT22;48849;48.758;9.158;2023-03-23T16:01:42;17.80;99.90
2212;DHT22;48849;48.758;9.158;2023-03-23T16:04:11;17.70;99.90
2212;DHT22;48849;48.758;9.158;2023-03-23T16:06:38;19.20;99.90